| time (UTC) | temp F | wind direction | speed MPH | gust MPH | rain 1hr in | rain 24hr in | rain mn in | humidity % | barometer mb |
| 20260510225506 | 63 | 32 | 1.0 | 2.0 | 0.03 | 0.52 | 0.52 | 86 | 1013.8 |
| 20260510225010 | 64 | 58 | 1.0 | 2.0 | 0.03 | 0.52 | 0.52 | 87 | 1013.7 |
| 20260510224525 | 64 | 42 | 0.0 | 2.0 | 0.04 | 0.52 | 0.52 | 89 | 1013.7 |
| 20260510224012 | 64 | 51 | 0.0 | 2.0 | 0.04 | 0.52 | 0.52 | 90 | 1013.8 |
| 20260510223509 | 64 | 82 | 1.0 | 2.0 | 0.04 | 0.52 | 0.52 | 91 | 1013.8 |
| 20260510223011 | 64 | 246 | 0.0 | 2.0 | 0.04 | 0.52 | 0.52 | 90 | 1014.0 |
| 20260510222504 | 64 | 246 | 0.0 | 2.0 | 0.04 | 0.52 | 0.52 | 90 | 1013.8 |
| 20260510222007 | 64 | 246 | 0.0 | 2.0 | 0.05 | 0.51 | 0.51 | 90 | 1014.2 |
| 20260510221513 | 64 | 259 | 0.0 | 2.0 | 0.11 | 0.50 | 0.50 | 90 | 1014.0 |
| 20260510221007 | 64 | 350 | 0.0 | 2.0 | 0.16 | 0.50 | 0.50 | 90 | 1013.8 |
| 20260510220507 | 64 | 350 | 0.0 | 2.0 | 0.18 | 0.49 | 0.49 | 90 | 1013.5 |
| 20260510220019 | 64 | 32 | 0.0 | 2.0 | 0.22 | 0.49 | 0.49 | 89 | 1013.4 |
| 20260510215506 | 64 | 32 | 0.0 | 2.0 | 0.33 | 0.49 | 0.49 | 89 | 1013.3 |
| 20260510215007 | 64 | 139 | 0.0 | 2.0 | 0.48 | 0.50 | 0.49 | 89 | 1013.4 |
| 20260510214522 | 64 | 139 | 0.0 | 2.0 | 0.48 | 0.50 | 0.48 | 89 | 1013.4 |
| 20260510214007 | 64 | 104 | 0.0 | 2.0 | 0.48 | 0.50 | 0.48 | 89 | 1013.3 |
| 20260510213510 | 64 | 172 | 0.0 | 2.0 | 0.48 | 0.50 | 0.48 | 88 | 1013.4 |
| 20260510213025 | 64 | 252 | 0.0 | 2.0 | 0.48 | 0.50 | 0.48 | 87 | 1013.5 |
| 20260510212509 | 64 | 327 | 0.0 | 2.0 | 0.48 | 0.50 | 0.48 | 87 | 1013.4 |
| 20260510212013 | 64 | 320 | 0.0 | 2.0 | 0.46 | 0.48 | 0.46 | 87 | 1013.4 |
| 20260510211510 | 64 | 286 | 0.0 | 2.0 | 0.39 | 0.41 | 0.39 | 83 | 1013.6 |
| 20260510211004 | 65 | 286 | 0.0 | 3.0 | 0.34 | 0.36 | 0.34 | 81 | 1013.4 |
| 20260510210507 | 66 | 278 | 1.0 | 8.0 | 0.31 | 0.33 | 0.31 | 76 | 1013.3 |
| 20260510210016 | 68 | 184 | 3.0 | 8.0 | 0.27 | 0.29 | 0.27 | 68 | 1013.2 |
| 20260510205506 | 70 | 143 | 1.0 | 2.0 | 0.16 | 0.18 | 0.16 | 69 | 1013.0 |
| 20260510205009 | 72 | 239 | 0.0 | 2.0 | 0.01 | 0.03 | 0.01 | 63 | 1012.5 |
| 20260510204523 | 74 | 231 | 0.0 | 2.0 | 0.00 | 0.02 | 0.00 | 54 | 1012.3 |
| 20260510204009 | 75 | 240 | 0.0 | 3.0 | 0.00 | 0.02 | 0.00 | 52 | 1012.2 |
| 20260510203506 | 75 | 269 | 1.0 | 3.0 | 0.00 | 0.02 | 0.00 | 53 | 1012.3 |
| 20260510203024 | 76 | 209 | 1.0 | 2.0 | 0.00 | 0.02 | 0.00 | 49 | 1012.3 |
| 20260510202508 | 76 | 219 | 1.0 | 4.0 | 0.00 | 0.02 | 0.00 | 48 | 1012.4 |
| 20260510202017 | 76 | 236 | 1.0 | 4.0 | 0.00 | 0.02 | 0.00 | 50 | 1012.4 |
| 20260510201524 | 76 | 284 | 1.0 | 3.0 | 0.00 | 0.02 | 0.00 | 49 | 1012.4 |
| 20260510201009 | 76 | 244 | 1.0 | 3.0 | 0.00 | 0.02 | 0.00 | 49 | 1012.5 |
| 20260510200503 | 77 | 215 | 1.0 | 5.0 | 0.00 | 0.02 | 0.00 | 49 | 1012.5 |
| 20260510200017 | 78 | 215 | 2.0 | 5.0 | 0.00 | 0.02 | 0.00 | 48 | 1012.6 |
| 20260510195510 | 78 | 61 | 1.0 | 5.0 | 0.00 | 0.02 | 0.00 | 50 | 1012.6 |
| 20260510195006 | 77 | 190 | 2.0 | 4.0 | 0.00 | 0.02 | 0.00 | 48 | 1012.7 |
| 20260510194525 | 77 | 299 | 1.0 | 3.0 | 0.00 | 0.02 | 0.00 | 51 | 1012.8 |
| 20260510194007 | 75 | 251 | 2.0 | 3.0 | 0.00 | 0.02 | 0.00 | 50 | 1012.8 |
| 20260510193508 | 76 | 257 | 1.0 | 3.0 | 0.00 | 0.02 | 0.00 | 49 | 1012.9 |
| 20260510193023 | 76 | 5 | 1.0 | 3.0 | 0.00 | 0.02 | 0.00 | 50 | 1012.8 |
| 20260510192507 | 75 | 206 | 1.0 | 2.0 | 0.00 | 0.02 | 0.00 | 54 | 1012.9 |
| 20260510192011 | 74 | 238 | 0.0 | 2.0 | 0.00 | 0.02 | 0.00 | 55 | 1013.1 |
| 20260510191525 | 74 | 280 | 0.0 | 3.0 | 0.00 | 0.02 | 0.00 | 55 | 1013.1 |
| 20260510191011 | 74 | 267 | 1.0 | 4.0 | 0.00 | 0.02 | 0.00 | 53 | 1013.1 |
| 20260510190516 | 74 | 258 | 1.0 | 4.0 | 0.00 | 0.02 | 0.00 | 51 | 1013.0 |
| 20260510190028 | 75 | 249 | 2.0 | 4.0 | 0.00 | 0.02 | 0.00 | 50 | 1013.1 |
| 20260510185507 | 75 | 209 | 1.0 | 3.0 | 0.00 | 0.02 | 0.00 | 52 | 1013.1 |
| 20260510185007 | 74 | 305 | 1.0 | 5.0 | 0.00 | 0.02 | 0.00 | 57 | 1013.1 |
| 20260510184517 | 74 | 304 | 1.0 | 6.0 | 0.00 | 0.02 | 0.00 | 52 | 1013.1 |
| 20260510184011 | 75 | 235 | 1.0 | 6.0 | 0.00 | 0.02 | 0.00 | 54 | 1013.1 |
| 20260510183511 | 75 | 254 | 1.0 | 5.0 | 0.00 | 0.02 | 0.00 | 54 | 1013.0 |
| 20260510183020 | 76 | 346 | 1.0 | 7.0 | 0.00 | 0.02 | 0.00 | 53 | 1013.1 |
| 20260510182507 | 76 | 271 | 2.0 | 7.0 | 0.00 | 0.02 | 0.00 | 52 | 1013.1 |
| 20260510182011 | 76 | 235 | 2.0 | 7.0 | 0.00 | 0.02 | 0.00 | 51 | 1013.1 |
| 20260510181524 | 76 | 326 | 1.0 | 7.0 | 0.00 | 0.02 | 0.00 | 56 | 1013.1 |
| 20260510181008 | 76 | 287 | 2.0 | 7.0 | 0.00 | 0.02 | 0.00 | 55 | 1013.1 |
| 20260510180510 | 76 | 96 | 3.0 | 7.0 | 0.00 | 0.02 | 0.00 | 53 | 1013.2 |
| 20260510180028 | 75 | 199 | 2.0 | 5.0 | 0.00 | 0.02 | 0.00 | 56 | 1013.2 |
| 20260510175511 | 75 | 269 | 1.0 | 4.0 | 0.00 | 0.03 | 0.00 | 60 | 1013.1 |
| 20260510175011 | 75 | 256 | 2.0 | 6.0 | 0.00 | 0.03 | 0.00 | 57 | 1013.1 |
| 20260510174515 | 75 | 210 | 2.0 | 6.0 | 0.00 | 0.03 | 0.00 | 59 | 1013.1 |
| 20260510174009 | 74 | 263 | 2.0 | 7.0 | 0.00 | 0.03 | 0.00 | 61 | 1013.2 |
| 20260510173511 | 74 | 299 | 2.0 | 7.0 | 0.00 | 0.03 | 0.00 | 58 | 1013.3 |
| 20260510173027 | 74 | 177 | 3.0 | 6.0 | 0.00 | 0.03 | 0.00 | 57 | 1013.3 |
| 20260510172503 | 74 | 246 | 1.0 | 5.0 | 0.00 | 0.03 | 0.00 | 63 | 1013.3 |
| 20260510172004 | 73 | 316 | 2.0 | 4.0 | 0.00 | 0.03 | 0.00 | 63 | 1013.3 |
| 20260510171505 | 73 | 298 | 2.0 | 6.0 | 0.00 | 0.03 | 0.00 | 62 | 1013.4 |
| 20260510171005 | 72 | 325 | 3.0 | 7.0 | 0.00 | 0.03 | 0.00 | 61 | 1013.3 |
| 20260510170503 | 72 | 323 | 3.0 | 7.0 | 0.00 | 0.03 | 0.00 | 64 | 1013.3 |
| 20260510170015 | 72 | 276 | 2.0 | 5.0 | 0.00 | 0.03 | 0.00 | 65 | 1013.3 |
| 20260510165503 | 71 | 300 | 1.0 | 4.0 | 0.00 | 0.03 | 0.00 | 65 | 1013.3 |
| 20260510165007 | 71 | 257 | 2.0 | 4.0 | 0.00 | 0.03 | 0.00 | 65 | 1013.4 |
| 20260510164513 | 71 | 282 | 2.0 | 4.0 | 0.00 | 0.03 | 0.00 | 61 | 1013.4 |
| 20260510164004 | 71 | 294 | 1.0 | 4.0 | 0.00 | 0.03 | 0.00 | 64 | 1013.4 |
| 20260510163510 | 70 | 193 | 1.0 | 4.0 | 0.00 | 0.03 | 0.00 | 62 | 1013.4 |
| 20260510163020 | 70 | 275 | 1.0 | 4.0 | 0.00 | 0.03 | 0.00 | 63 | 1013.3 |
| 20260510162512 | 70 | 305 | 2.0 | 4.0 | 0.00 | 0.03 | 0.00 | 67 | 1013.4 |
| 20260510162011 | 69 | 327 | 1.0 | 4.0 | 0.00 | 0.03 | 0.00 | 65 | 1013.4 |
| 20260510161506 | 69 | 348 | 0.0 | 4.0 | 0.00 | 0.03 | 0.00 | 70 | 1013.4 |
| 20260510161004 | 69 | 22 | 1.0 | 5.0 | 0.00 | 0.03 | 0.00 | 69 | 1013.4 |
| 20260510160505 | 69 | 25 | 2.0 | 5.0 | 0.00 | 0.03 | 0.00 | 71 | 1013.5 |
| 20260510160006 | 68 | 19 | 2.0 | 5.0 | 0.00 | 0.03 | 0.00 | 70 | 1013.6 |
| 20260510155505 | 68 | 267 | 0.0 | 3.0 | 0.00 | 0.03 | 0.00 | 75 | 1013.6 |
| 20260510155004 | 67 | 19 | 2.0 | 4.0 | 0.00 | 0.03 | 0.00 | 74 | 1013.6 |
| 20260510154511 | 66 | 309 | 1.0 | 4.0 | 0.00 | 0.03 | 0.00 | 77 | 1013.6 |
| 20260510154007 | 66 | 113 | 0.0 | 3.0 | 0.00 | 0.03 | 0.00 | 80 | 1013.5 |
| 20260510153508 | 66 | 202 | 2.0 | 3.0 | 0.00 | 0.03 | 0.00 | 78 | 1013.7 |
| 20260510153031 | 65 | 325 | 0.0 | 3.0 | 0.00 | 0.03 | 0.00 | 81 | 1013.6 |
| 20260510152508 | 64 | 323 | 1.0 | 3.0 | 0.00 | 0.03 | 0.00 | 79 | 1013.7 |
| 20260510152012 | 64 | 317 | 1.0 | 3.0 | 0.00 | 0.03 | 0.00 | 81 | 1013.8 |
| 20260510151531 | 63 | 5 | 1.0 | 3.0 | 0.00 | 0.03 | 0.00 | 83 | 1013.7 |
| 20260510151008 | 62 | 178 | 0.0 | 3.0 | 0.00 | 0.03 | 0.00 | 84 | 1013.7 |
| 20260510150504 | 62 | 261 | 1.0 | 3.0 | 0.00 | 0.03 | 0.00 | 84 | 1013.7 |
| 20260510150004 | 61 | 298 | 0.0 | 3.0 | 0.00 | 0.03 | 0.00 | 85 | 1013.7 |
| 20260510145504 | 60 | 343 | 0.0 | 2.0 | 0.00 | 0.03 | 0.00 | 87 | 1013.6 |
| 20260510145006 | 60 | 328 | 1.0 | 3.0 | 0.00 | 0.03 | 0.00 | 86 | 1013.7 |
| 20260510144510 | 60 | 66 | 0.0 | 3.0 | 0.00 | 0.03 | 0.00 | 88 | 1013.7 |
| 20260510144005 | 58 | 267 | 1.0 | 3.0 | 0.00 | 0.03 | 0.00 | 89 | 1013.8 |
| 20260510143504 | 58 | 286 | 1.0 | 3.0 | 0.00 | 0.03 | 0.00 | 90 | 1013.8 |
| 20260510143013 | 57 | 310 | 1.0 | 3.0 | 0.00 | 0.03 | 0.00 | 91 | 1013.8 |
| 20260510142510 | 58 | 9 | 1.0 | 2.0 | 0.00 | 0.03 | 0.00 | 92 | 1013.7 |
| 20260510142008 | 57 | 180 | 1.0 | 2.0 | 0.00 | 0.03 | 0.00 | 93 | 1013.7 |
| 20260510141523 | 56 | 251 | 0.0 | 2.0 | 0.00 | 0.03 | 0.00 | 93 | 1013.8 |
| 20260510141009 | 56 | 206 | 1.0 | 2.0 | 0.00 | 0.03 | 0.00 | 94 | 1013.8 |
| 20260510140510 | 56 | 272 | 1.0 | 2.0 | 0.00 | 0.03 | 0.00 | 94 | 1013.8 |
| 20260510140023 | 55 | 331 | 1.0 | 2.0 | 0.00 | 0.03 | 0.00 | 93 | 1013.8 |
| 20260510135508 | 55 | 264 | 0.0 | 2.0 | 0.00 | 0.03 | 0.00 | 94 | 1013.7 |
| 20260510135008 | 55 | 212 | 0.0 | 2.0 | 0.00 | 0.03 | 0.00 | 94 | 1013.6 |
| 20260510134524 | 55 | 276 | 1.0 | 2.0 | 0.00 | 0.03 | 0.00 | 94 | 1013.5 |
| 20260510134010 | 55 | 273 | 0.0 | 2.0 | 0.00 | 0.03 | 0.00 | 94 | 1013.5 |
| 20260510133511 | 54 | 294 | 0.0 | 3.0 | 0.00 | 0.03 | 0.00 | 94 | 1013.6 |
| 20260510133025 | 54 | 283 | 1.0 | 3.0 | 0.00 | 0.03 | 0.00 | 94 | 1013.7 |
| 20260510132508 | 54 | 304 | 0.0 | 2.0 | 0.00 | 0.03 | 0.00 | 94 | 1013.7 |
| 20260510132007 | 54 | 305 | 0.0 | 2.0 | 0.00 | 0.03 | 0.00 | 94 | 1013.8 |
| 20260510131515 | 54 | 277 | 0.0 | 2.0 | 0.00 | 0.03 | 0.00 | 94 | 1013.7 |
| 20260510131008 | 54 | 254 | 0.0 | 2.0 | 0.00 | 0.03 | 0.00 | 94 | 1013.6 |
| 20260510130507 | 54 | 265 | 1.0 | 1.0 | 0.00 | 0.03 | 0.00 | 94 | 1013.5 |
| 20260510130038 | 53 | 38 | 0.0 | 2.0 | 0.00 | 0.03 | 0.00 | 94 | 1013.4 |
| 20260510125506 | 54 | 56 | 0.0 | 2.0 | 0.00 | 0.03 | 0.00 | 94 | 1013.3 |
| 20260510125015 | 54 | 198 | 1.0 | 2.0 | 0.00 | 0.03 | 0.00 | 94 | 1013.1 |
| 20260510124526 | 54 | 262 | 0.0 | 2.0 | 0.00 | 0.03 | 0.00 | 94 | 1013.1 |
| 20260510124010 | 53 | 266 | 0.0 | 2.0 | 0.00 | 0.03 | 0.00 | 94 | 1013.2 |
| 20260510123508 | 53 | 56 | 0.0 | 2.0 | 0.00 | 0.03 | 0.00 | 94 | 1013.3 |
| 20260510123025 | 53 | 57 | 0.0 | 2.0 | 0.00 | 0.03 | 0.00 | 94 | 1013.3 |
| 20260510122514 | 53 | 35 | 0.0 | 2.0 | 0.00 | 0.03 | 0.00 | 94 | 1013.1 |
| 20260510122012 | 53 | 306 | 0.0 | 2.0 | 0.00 | 0.03 | 0.00 | 94 | 1013.2 |
| 20260510121527 | 53 | 346 | 0.0 | 2.0 | 0.00 | 0.03 | 0.00 | 94 | 1013.1 |
| 20260510121007 | 53 | 45 | 0.0 | 2.0 | 0.00 | 0.03 | 0.00 | 94 | 1013.0 |
| 20260510120506 | 52 | 337 | 0.0 | 2.0 | 0.00 | 0.03 | 0.00 | 94 | 1013.1 |
| 20260510120028 | 52 | 24 | 0.0 | 2.0 | 0.00 | 0.03 | 0.00 | 94 | 1013.0 |
| 20260510115507 | 52 | 9 | 0.0 | 2.0 | 0.00 | 0.03 | 0.00 | 94 | 1012.9 |
| 20260510115011 | 52 | 360 | 0.0 | 2.0 | 0.00 | 0.03 | 0.00 | 94 | 1012.9 |
| 20260510114524 | 52 | 360 | 0.0 | 2.0 | 0.00 | 0.03 | 0.00 | 94 | 1012.9 |
| 20260510114009 | 51 | 360 | 0.0 | 2.0 | 0.00 | 0.03 | 0.00 | 94 | 1012.8 |
| 20260510113509 | 51 | 360 | 0.0 | 2.0 | 0.00 | 0.03 | 0.00 | 94 | 1012.8 |
| 20260510113026 | 51 | 360 | 0.0 | 2.0 | 0.00 | 0.03 | 0.00 | 94 | 1012.7 |
| 20260510112504 | 51 | 360 | 0.0 | 2.0 | 0.00 | 0.03 | 0.00 | 94 | 1012.5 |
| 20260510112004 | 51 | 360 | 0.0 | 2.0 | 0.00 | 0.03 | 0.00 | 94 | 1012.5 |
| 20260510111506 | 51 | 360 | 0.0 | 2.0 | 0.00 | 0.03 | 0.00 | 94 | 1012.5 |
| 20260510111004 | 51 | 360 | 0.0 | 3.0 | 0.00 | 0.03 | 0.00 | 94 | 1012.5 |
| 20260510110507 | 51 | 360 | 0.0 | 3.0 | 0.00 | 0.03 | 0.00 | 94 | 1012.5 |
| 20260510110013 | 50 | 360 | 1.0 | 2.0 | 0.00 | 0.03 | 0.00 | 94 | 1012.4 |
| 20260510105504 | 51 | 360 | 0.0 | 2.0 | 0.00 | 0.03 | 0.00 | 94 | 1012.0 |
| 20260510105003 | 50 | 360 | 0.0 | 2.0 | 0.00 | 0.03 | 0.00 | 94 | 1012.1 |
| 20260510104506 | 50 | 360 | 1.0 | 2.0 | 0.00 | 0.03 | 0.00 | 94 | 1012.1 |
| 20260510104004 | 50 | 360 | 0.0 | 2.0 | 0.00 | 0.03 | 0.00 | 94 | 1011.9 |
| 20260510103504 | 50 | 360 | 0.0 | 2.0 | 0.00 | 0.03 | 0.00 | 94 | 1012.0 |
| 20260510103006 | 50 | 360 | 0.0 | 2.0 | 0.00 | 0.03 | 0.00 | 94 | 1012.2 |
| 20260510102504 | 50 | 360 | 0.0 | 2.0 | 0.00 | 0.03 | 0.00 | 94 | 1012.4 |
| 20260510102005 | 50 | 360 | 0.0 | 2.0 | 0.00 | 0.03 | 0.00 | 94 | 1012.4 |
| 20260510101509 | 50 | 360 | 0.0 | 2.0 | 0.00 | 0.03 | 0.00 | 94 | 1012.3 |
| 20260510101002 | 49 | 360 | 0.0 | 2.0 | 0.00 | 0.03 | 0.00 | 94 | 1012.2 |
| 20260510100503 | 49 | 360 | 0.0 | 2.0 | 0.00 | 0.03 | 0.00 | 94 | 1012.3 |
| 20260510100007 | 49 | 360 | 1.0 | 2.0 | 0.00 | 0.03 | 0.00 | 94 | 1012.1 |
| 20260510095503 | 49 | 360 | 0.0 | 2.0 | 0.00 | 0.03 | 0.00 | 94 | 1012.0 |
| 20260510095007 | 49 | 360 | 1.0 | 3.0 | 0.00 | 0.03 | 0.00 | 94 | 1012.3 |
| 20260510094508 | 49 | 360 | 0.0 | 3.0 | 0.00 | 0.03 | 0.00 | 94 | 1012.0 |
| 20260510094004 | 49 | 360 | 1.0 | 5.0 | 0.00 | 0.03 | 0.00 | 94 | 1012.3 |
| 20260510093503 | 49 | 360 | 0.0 | 5.0 | 0.00 | 0.03 | 0.00 | 94 | 1011.8 |
| 20260510093005 | 49 | 360 | 1.0 | 4.0 | 0.00 | 0.03 | 0.00 | 94 | 1012.1 |
| 20260510092505 | 48 | 360 | 1.0 | 4.0 | 0.00 | 0.03 | 0.00 | 94 | 1012.2 |
| 20260510092004 | 48 | 360 | 2.0 | 4.0 | 0.00 | 0.03 | 0.00 | 94 | 1011.7 |
| 20260510091507 | 48 | 360 | 1.0 | 4.0 | 0.00 | 0.03 | 0.00 | 94 | 1011.5 |
| 20260510091005 | 48 | 360 | 1.0 | 2.0 | 0.00 | 0.03 | 0.00 | 94 | 1011.7 |
| 20260510090504 | 48 | 360 | 0.0 | 2.0 | 0.00 | 0.03 | 0.00 | 94 | 1011.3 |
| 20260510090008 | 48 | 360 | 0.0 | 2.0 | 0.00 | 0.03 | 0.00 | 94 | 1011.2 |
| 20260510085503 | 48 | 360 | 1.0 | 2.0 | 0.00 | 0.03 | 0.00 | 94 | 1011.3 |
| 20260510085006 | 48 | 360 | 0.0 | 2.0 | 0.00 | 0.03 | 0.00 | 94 | 1011.3 |
| 20260510084511 | 48 | 360 | 0.0 | 2.0 | 0.00 | 0.03 | 0.00 | 94 | 1011.4 |
| 20260510084006 | 48 | 360 | 0.0 | 2.0 | 0.00 | 0.03 | 0.00 | 94 | 1011.4 |
| 20260510083504 | 48 | 360 | 0.0 | 2.0 | 0.00 | 0.03 | 0.00 | 94 | 1011.5 |
| 20260510083011 | 47 | 360 | 0.0 | 2.0 | 0.00 | 0.03 | 0.00 | 94 | 1011.4 |
| 20260510082504 | 47 | 360 | 0.0 | 2.0 | 0.00 | 0.03 | 0.00 | 94 | 1011.4 |
| 20260510082003 | 47 | 360 | 0.0 | 2.0 | 0.00 | 0.03 | 0.00 | 94 | 1011.4 |
| 20260510081509 | 47 | 360 | 0.0 | 2.0 | 0.00 | 0.03 | 0.00 | 94 | 1011.4 |
| 20260510081003 | 47 | 360 | 0.0 | 2.0 | 0.00 | 0.03 | 0.00 | 94 | 1011.4 |
| 20260510080504 | 47 | 360 | 0.0 | 2.0 | 0.00 | 0.03 | 0.00 | 93 | 1011.4 |
| 20260510080010 | 47 | 360 | 0.0 | 2.0 | 0.00 | 0.03 | 0.00 | 93 | 1011.4 |
| 20260510075504 | 47 | 360 | 0.0 | 2.0 | 0.00 | 0.03 | 0.00 | 93 | 1011.3 |
| 20260510075005 | 47 | 360 | 0.0 | 1.0 | 0.00 | 0.03 | 0.00 | 93 | 1011.2 |
| 20260510074511 | 47 | 360 | 0.0 | 2.0 | 0.00 | 0.03 | 0.00 | 93 | 1011.1 |
| 20260510074005 | 47 | 360 | 0.0 | 2.0 | 0.00 | 0.03 | 0.00 | 93 | 1011.1 |
| 20260510073503 | 47 | 360 | 0.0 | 2.0 | 0.00 | 0.03 | 0.00 | 93 | 1011.1 |
| 20260510073012 | 47 | 360 | 0.0 | 2.0 | 0.00 | 0.03 | 0.00 | 93 | 1011.1 |
| 20260510072504 | 46 | 360 | 0.0 | 2.0 | 0.00 | 0.03 | 0.00 | 93 | 1011.1 |
| 20260510072007 | 46 | 96 | 0.0 | 0.0 | 0.00 | 0.03 | 0.00 | 93 | 1010.9 |
| 20260510071519 | 45 | 360 | 0.0 | 0.0 | 0.00 | 0.03 | 0.00 | 93 | 1010.8 |
| 20260510071004 | 46 | 360 | 0.0 | 0.0 | 0.00 | 0.03 | 0.00 | 93 | 1010.7 |
| 20260510070503 | 46 | 360 | 0.0 | 0.0 | 0.00 | 0.03 | 0.00 | 93 | 1010.7 |
| 20260510070009 | 46 | 360 | 0.0 | 0.0 | 0.00 | 0.03 | 0.00 | 93 | 1010.7 |
| 20260510065504 | 46 | 360 | 0.0 | 0.0 | 0.00 | 0.03 | 0.00 | 93 | 1010.7 |
| 20260510065008 | 46 | 360 | 0.0 | 0.0 | 0.00 | 0.03 | 0.00 | 93 | 1010.7 |
| 20260510064526 | 46 | 360 | 0.0 | 0.0 | 0.00 | 0.03 | 0.00 | 93 | 1010.7 |
| 20260510064004 | 46 | 360 | 0.0 | 0.0 | 0.00 | 0.03 | 0.00 | 93 | 1010.6 |
| 20260510063505 | 46 | 360 | 0.0 | 0.0 | 0.00 | 0.03 | 0.00 | 93 | 1010.7 |
| 20260510063015 | 46 | 360 | 0.0 | 0.0 | 0.00 | 0.03 | 0.00 | 93 | 1010.8 |
| 20260510062502 | 46 | 360 | 0.0 | 0.0 | 0.00 | 0.03 | 0.00 | 93 | 1010.8 |
| 20260510062004 | 46 | 360 | 0.0 | 0.0 | 0.00 | 0.03 | 0.00 | 93 | 1010.8 |
| 20260510061519 | 47 | 360 | 0.0 | 0.0 | 0.00 | 0.03 | 0.00 | 93 | 1010.8 |
| 20260510061004 | 47 | 360 | 0.0 | 0.0 | 0.00 | 0.03 | 0.00 | 93 | 1010.8 |
| 20260510060505 | 46 | 360 | 0.0 | 0.0 | 0.00 | 0.03 | 0.00 | 93 | 1010.8 |
| 20260510060017 | 46 | 360 | 0.0 | 0.0 | 0.00 | 0.03 | 0.00 | 93 | 1010.9 |
| 20260510055505 | 46 | 360 | 0.0 | 0.0 | 0.00 | 0.03 | 0.00 | 93 | 1011.0 |
| 20260510055004 | 47 | 360 | 0.0 | 0.0 | 0.00 | 0.03 | 0.00 | 93 | 1011.1 |
| 20260510054510 | 47 | 360 | 0.0 | 0.0 | 0.00 | 0.03 | 0.00 | 93 | 1011.1 |
| 20260510054003 | 46 | 95 | 0.0 | 0.0 | 0.00 | 0.03 | 0.00 | 93 | 1011.1 |
| 20260510053504 | 47 | 95 | 0.0 | 0.0 | 0.00 | 0.03 | 0.00 | 93 | 1011.2 |
| 20260510053022 | 47 | 95 | 0.0 | 0.0 | 0.00 | 0.03 | 0.00 | 93 | 1011.2 |
| 20260510052504 | 47 | 95 | 0.0 | 0.0 | 0.00 | 0.03 | 0.00 | 93 | 1011.2 |
| 20260510052006 | 47 | 94 | 0.0 | 0.0 | 0.00 | 0.03 | 0.00 | 93 | 1011.2 |
| 20260510051515 | 47 | 94 | 0.0 | 0.0 | 0.00 | 0.03 | 0.00 | 93 | 1011.2 |
| 20260510051008 | 47 | 95 | 0.0 | 0.0 | 0.00 | 0.03 | 0.00 | 93 | 1011.2 |
| 20260510050503 | 47 | 94 | 0.0 | 0.0 | 0.00 | 0.03 | 0.00 | 93 | 1011.3 |
| 20260510050004 | 47 | 95 | 0.0 | 0.0 | 0.00 | 0.03 | 0.00 | 93 | 1011.2 |
| 20260510045504 | 47 | 96 | 0.0 | 0.0 | 0.00 | 0.03 | 0.00 | 93 | 1011.3 |
| 20260510045007 | 47 | 94 | 0.0 | 0.0 | 0.00 | 0.03 | 0.00 | 93 | 1011.3 |
| 20260510044515 | 47 | 95 | 0.0 | 0.0 | 0.00 | 0.03 | 0.00 | 93 | 1011.4 |
| 20260510044003 | 47 | 96 | 0.0 | 0.0 | 0.00 | 0.03 | 0.00 | 93 | 1011.4 |
| 20260510043503 | 47 | 360 | 0.0 | 0.0 | 0.00 | 0.03 | 0.00 | 93 | 1011.4 |
| 20260510043011 | 47 | 360 | 0.0 | 0.0 | 0.00 | 0.03 | 0.00 | 93 | 1011.5 |
| 20260510042504 | 48 | 360 | 0.0 | 0.0 | 0.00 | 0.03 | 0.00 | 93 | 1011.5 |
| 20260510042005 | 48 | 96 | 0.0 | 0.0 | 0.00 | 0.03 | 0.00 | 93 | 1011.4 |
| 20260510041517 | 48 | 95 | 0.0 | 0.0 | 0.00 | 0.03 | 0.00 | 93 | 1011.4 |
| 20260510041007 | 48 | 94 | 0.0 | 0.0 | 0.00 | 0.03 | 0.00 | 93 | 1011.5 |
| 20260510040506 | 48 | 96 | 0.0 | 0.0 | 0.00 | 0.03 | 0.00 | 93 | 1011.5 |
| 20260510040018 | 48 | 95 | 0.0 | 0.0 | 0.00 | 0.03 | 0.00 | 93 | 1011.4 |
| 20260510035506 | 48 | 94 | 0.0 | 0.0 | 0.00 | 0.03 | 0.03 | 93 | 1011.4 |
| 20260510035002 | 48 | 96 | 0.0 | 0.0 | 0.00 | 0.03 | 0.03 | 93 | 1011.3 |
| 20260510034507 | 48 | 360 | 0.0 | 0.0 | 0.00 | 0.03 | 0.03 | 92 | 1011.3 |
| 20260510034004 | 49 | 360 | 0.0 | 0.0 | 0.00 | 0.03 | 0.03 | 93 | 1011.4 |
| 20260510033503 | 49 | 360 | 0.0 | 0.0 | 0.00 | 0.03 | 0.03 | 92 | 1011.3 |
| 20260510033019 | 49 | 360 | 0.0 | 0.0 | 0.00 | 0.03 | 0.03 | 92 | 1011.2 |
| 20260510032503 | 49 | 360 | 0.0 | 0.0 | 0.00 | 0.03 | 0.03 | 92 | 1011.2 |
| 20260510032006 | 49 | 360 | 0.0 | 0.0 | 0.00 | 0.03 | 0.03 | 92 | 1011.1 |
| 20260510031514 | 49 | 360 | 0.0 | 0.0 | 0.00 | 0.03 | 0.03 | 92 | 1011.1 |
| 20260510031007 | 49 | 360 | 0.0 | 0.0 | 0.00 | 0.03 | 0.03 | 92 | 1011.2 |
| 20260510030508 | 49 | 360 | 0.0 | 0.0 | 0.00 | 0.03 | 0.03 | 92 | 1011.2 |
| 20260510030024 | 49 | 360 | 0.0 | 0.0 | 0.00 | 0.03 | 0.03 | 92 | 1011.2 |
| 20260510025506 | 50 | 360 | 0.0 | 0.0 | 0.00 | 0.03 | 0.03 | 92 | 1011.3 |
| 20260510025007 | 49 | 360 | 0.0 | 0.0 | 0.00 | 0.03 | 0.03 | 92 | 1011.2 |
| 20260510024518 | 50 | 360 | 0.0 | 0.0 | 0.00 | 0.03 | 0.03 | 92 | 1011.2 |
| 20260510024005 | 50 | 360 | 0.0 | 0.0 | 0.00 | 0.03 | 0.03 | 92 | 1011.2 |
| 20260510023505 | 51 | 360 | 0.0 | 0.0 | 0.00 | 0.03 | 0.03 | 92 | 1011.2 |
| 20260510023009 | 50 | 360 | 0.0 | 0.0 | 0.00 | 0.03 | 0.03 | 92 | 1011.1 |
| 20260510022503 | 50 | 360 | 0.0 | 0.0 | 0.00 | 0.03 | 0.03 | 92 | 1011.1 |
| 20260510022006 | 50 | 360 | 0.0 | 0.0 | 0.00 | 0.03 | 0.03 | 92 | 1011.1 |
| 20260510021523 | 50 | 360 | 0.0 | 0.0 | 0.00 | 0.03 | 0.03 | 92 | 1011.1 |
| 20260510021006 | 50 | 360 | 0.0 | 0.0 | 0.00 | 0.03 | 0.03 | 92 | 1011.0 |
| 20260510020504 | 50 | 360 | 0.0 | 0.0 | 0.00 | 0.03 | 0.03 | 91 | 1011.0 |
| 20260510020020 | 51 | 360 | 0.0 | 0.0 | 0.00 | 0.03 | 0.03 | 92 | 1011.0 |
| 20260510015507 | 50 | 360 | 0.0 | 0.0 | 0.00 | 0.03 | 0.03 | 91 | 1011.1 |
| 20260510015005 | 50 | 360 | 0.0 | 0.0 | 0.00 | 0.03 | 0.03 | 91 | 1011.1 |
| 20260510014520 | 51 | 360 | 0.0 | 0.0 | 0.00 | 0.03 | 0.03 | 91 | 1011.2 |
| 20260510014006 | 51 | 360 | 0.0 | 0.0 | 0.00 | 0.03 | 0.03 | 91 | 1011.2 |
| 20260510013506 | 51 | 360 | 0.0 | 0.0 | 0.00 | 0.03 | 0.03 | 91 | 1011.3 |
| 20260510013022 | 52 | 360 | 0.0 | 0.0 | 0.00 | 0.03 | 0.03 | 92 | 1011.2 |
| 20260510012503 | 51 | 360 | 0.0 | 0.0 | 0.00 | 0.03 | 0.03 | 91 | 1011.1 |
| 20260510012004 | 51 | 360 | 0.0 | 0.0 | 0.00 | 0.03 | 0.03 | 91 | 1011.1 |
| 20260510011511 | 51 | 94 | 0.0 | 0.0 | 0.00 | 0.03 | 0.03 | 91 | 1011.1 |
| 20260510011004 | 52 | 94 | 0.0 | 0.0 | 0.00 | 0.03 | 0.03 | 91 | 1010.8 |
| 20260510010504 | 52 | 94 | 0.0 | 0.0 | 0.00 | 0.03 | 0.03 | 91 | 1010.8 |
| 20260510010019 | 52 | 94 | 0.0 | 0.0 | 0.00 | 0.03 | 0.03 | 91 | 1010.8 |
| 20260510005507 | 52 | 93 | 0.0 | 0.0 | 0.00 | 0.03 | 0.03 | 90 | 1010.8 |
| 20260510005004 | 52 | 92 | 0.0 | 0.0 | 0.00 | 0.03 | 0.03 | 90 | 1010.8 |
| 20260510004522 | 53 | 90 | 0.0 | 0.0 | 0.00 | 0.03 | 0.03 | 90 | 1010.7 |
| 20260510004009 | 53 | 90 | 0.0 | 0.0 | 0.00 | 0.03 | 0.03 | 89 | 1010.7 |
| 20260510003508 | 53 | 90 | 0.0 | 0.0 | 0.00 | 0.03 | 0.03 | 90 | 1010.6 |
| 20260510003022 | 53 | 90 | 0.0 | 0.0 | 0.00 | 0.03 | 0.03 | 89 | 1010.6 |
| 20260510002510 | 53 | 90 | 0.0 | 0.0 | 0.00 | 0.03 | 0.03 | 87 | 1010.7 |
| 20260510002012 | 54 | 90 | 0.0 | 0.0 | 0.00 | 0.03 | 0.03 | 88 | 1010.6 |
| 20260510001522 | 54 | 90 | 0.0 | 0.0 | 0.00 | 0.03 | 0.03 | 88 | 1010.7 |
| 20260510001004 | 55 | 90 | 0.0 | 0.0 | 0.00 | 0.03 | 0.03 | 88 | 1010.6 |
| 20260510000504 | 55 | 90 | 0.0 | 0.0 | 0.00 | 0.03 | 0.03 | 87 | 1010.7 |
| 20260510000011 | 55 | 90 | 0.0 | 0.0 | 0.00 | 0.03 | 0.03 | 87 | 1010.7 |
| 20260509235507 | 56 | 90 | 0.0 | 2.0 | 0.00 | 0.03 | 0.03 | 86 | 1010.7 |
| 20260509235006 | 56 | 90 | 0.0 | 2.0 | 0.00 | 0.03 | 0.03 | 85 | 1010.7 |
| 20260509234529 | 56 | 90 | 0.0 | 2.0 | 0.00 | 0.03 | 0.03 | 85 | 1010.6 |
| 20260509234006 | 56 | 90 | 0.0 | 2.0 | 0.00 | 0.03 | 0.03 | 84 | 1010.6 |
| 20260509233507 | 57 | 90 | 0.0 | 2.0 | 0.00 | 0.03 | 0.03 | 84 | 1010.4 |
| 20260509233022 | 57 | 91 | 0.0 | 2.0 | 0.00 | 0.03 | 0.03 | 84 | 1010.4 |
| 20260509232508 | 57 | 94 | 0.0 | 2.0 | 0.00 | 0.03 | 0.03 | 83 | 1010.2 |
| 20260509232012 | 57 | 72 | 0.0 | 2.0 | 0.00 | 0.03 | 0.03 | 82 | 1010.1 |
| 20260509231521 | 58 | 42 | 0.0 | 2.0 | 0.00 | 0.03 | 0.03 | 84 | 1010.1 |
| 20260509231006 | 57 | 166 | 0.0 | 2.0 | 0.00 | 0.03 | 0.03 | 84 | 1010.2 |
| 20260509230506 | 57 | 173 | 0.0 | 2.0 | 0.00 | 0.03 | 0.03 | 84 | 1010.2 |
| 20260509230021 | 57 | 87 | 0.0 | 2.0 | 0.00 | 0.03 | 0.03 | 84 | 1010.2 |